Time;durP1;ratioP1;P1;durP2;ratioP2;P2;SDS_P1;SDS_P2;PMS_P1;PMS_P2;Temp;Humidity;BMP_temperature;BMP_pressure;BME280_temperature;BME280_humidity;BME280_pressure;Samples;Min_cycle;Max_cycle;Signal;HPM_P1;HPM_P2
2021/11/18 00:01:33;;;;;;;28.30;16.60;;;6.70;99.90;;;;;;5066374;28;20235;-64
2021/11/18 00:03:59;;;;;;;30.33;17.97;;;6.70;99.90;;;;;;5069983;28;20527;-65
2021/11/18 00:06:25;;;;;;;26.23;16.10;;;6.70;99.90;;;;;;5057763;28;20560;-66
2021/11/18 00:08:51;;;;;;;23.50;15.70;;;6.70;99.90;;;;;;5051286;28;20170;-64
2021/11/18 00:11:20;;;;;;;23.93;16.13;;;6.70;99.90;;;;;;5062713;28;20227;-65
2021/11/18 00:13:53;;;;;;;29.37;15.73;;;6.70;99.90;;;;;;5071334;28;20249;-65
2021/11/18 00:16:20;;;;;;;23.00;16.17;;;6.70;99.90;;;;;;5058161;28;20248;-64
2021/11/18 00:18:45;;;;;;;23.80;15.17;;;6.70;99.90;;;;;;5051178;28;20178;-64
2021/11/18 00:21:22;;;;;;;25.00;16.53;;;6.70;99.90;;;;;;5060710;28;20174;-66
2021/11/18 00:23:53;;;;;;;25.37;13.87;;;6.70;99.90;;;;;;5071286;28;20242;-65
2021/11/18 00:26:20;;;;;;;24.87;14.00;;;6.70;99.90;;;;;;5059239;28;20206;-66
2021/11/18 00:28:48;;;;;;;28.23;14.10;;;6.70;99.90;;;;;;5051144;28;20174;-65
2021/11/18 00:31:16;;;;;;;24.20;14.33;;;6.70;99.90;;;;;;5059817;28;20647;-65
2021/11/18 00:33:42;;;;;;;27.13;14.87;;;6.70;99.90;;;;;;5071346;28;20249;-66
2021/11/18 00:36:08;;;;;;;24.43;15.17;;;6.70;99.90;;;;;;5062866;28;20226;-65
2021/11/18 00:38:36;;;;;;;31.93;14.67;;;6.70;99.90;;;;;;5051191;28;20633;-66
2021/11/18 00:41:03;;;;;;;27.67;15.60;;;6.70;99.90;;;;;;5052009;28;20520;-66
2021/11/18 00:43:29;;;;;;;24.70;15.57;;;6.70;99.90;;;;;;5051119;28;20175;-66
2021/11/18 00:45:55;;;;;;;22.07;15.13;;;6.70;99.90;;;;;;5056010;28;20854;-64
2021/11/18 00:48:21;;;;;;;26.80;14.37;;;6.70;99.90;;;;;;5070869;28;20662;-66
2021/11/18 00:50:51;;;;;;;21.80;15.03;;;6.70;99.90;;;;;;5067270;28;20777;-66
2021/11/18 00:53:18;;;;;;;19.90;15.00;;;6.70;99.90;;;;;;5051068;28;20167;-67
2021/11/18 00:55:45;;;;;;;25.60;15.53;;;6.70;99.90;;;;;;5052915;28;20201;-66
2021/11/18 00:58:11;;;;;;;34.30;16.93;;;6.80;99.90;;;;;;5070924;28;20208;-65
2021/11/18 01:00:38;;;;;;;23.37;15.67;;;6.80;99.90;;;;;;5072565;28;20197;-65
2021/11/18 01:03:04;;;;;;;23.70;15.90;;;6.80;99.90;;;;;;5053258;28;20628;-65
2021/11/18 01:05:34;;;;;;;32.30;17.50;;;6.80;99.90;;;;;;5065221;28;20212;-65
2021/11/18 01:08:00;;;;;;;28.47;15.83;;;6.70;99.90;;;;;;5074256;28;20170;-68
2021/11/18 01:10:32;;;;;;;26.30;17.20;;;6.70;99.90;;;;;;5063560;28;20652;-66
2021/11/18 01:12:59;;;;;;;26.73;17.17;;;6.70;99.90;;;;;;5054310;28;20171;-65
2021/11/18 01:15:29;;;;;;;26.73;16.97;;;6.70;99.90;;;;;;5063381;28;20706;-64
2021/11/18 01:17:55;;;;;;;26.20;15.53;;;6.70;99.90;;;;;;5074423;28;20174;-66
2021/11/18 01:20:23;;;;;;;37.27;16.67;;;6.70;99.90;;;;;;5065226;28;20273;-65
2021/11/18 01:22:51;;;;;;;29.40;16.10;;;6.70;99.90;;;;;;5053418;28;20644;-65
2021/11/18 01:25:17;;;;;;;29.97;15.33;;;6.70;99.90;;;;;;5061013;28;20241;-65
2021/11/18 01:27:43;;;;;;;23.47;16.67;;;6.60;99.90;;;;;;5074041;28;20211;-64
2021/11/18 01:30:18;;;;;;;22.90;16.37;;;6.60;99.90;;;;;;5067879;28;20254;-64
2021/11/18 01:32:44;;;;;;;24.67;16.53;;;6.60;99.90;;;;;;5054010;28;20514;-65
2021/11/18 01:35:09;;;;;;;30.47;17.77;;;6.60;99.90;;;;;;5058677;28;20267;-65
2021/11/18 01:37:35;;;;;;;35.83;18.20;;;6.50;99.90;;;;;;5073906;28;20178;-66
2021/11/18 01:40:01;;;;;;;30.63;16.43;;;6.50;99.90;;;;;;5070086;28;20179;-65
2021/11/18 01:42:27;;;;;;;31.23;17.13;;;6.50;99.90;;;;;;5053757;28;20243;-64
2021/11/18 01:44:54;;;;;;;33.37;17.07;;;6.50;99.90;;;;;;5054886;28;20643;-66
2021/11/18 01:47:20;;;;;;;33.17;18.00;;;6.50;99.90;;;;;;5073805;28;20261;-64
2021/11/18 01:49:48;;;;;;;29.57;17.03;;;6.40;99.90;;;;;;5073021;28;20174;-64
2021/11/18 01:52:18;;;;;;;29.97;16.67;;;6.40;99.90;;;;;;5033707;28;20183;-65
2021/11/18 01:54:45;;;;;;;31.33;17.07;;;6.40;99.90;;;;;;5033652;28;20211;-64
2021/11/18 01:57:14;;;;;;;33.23;18.23;;;6.40;99.90;;;;;;5072754;28;20702;-66
2021/11/18 01:59:44;;;;;;;28.77;17.37;;;6.40;99.90;;;;;;5073140;28;20170;-64
2021/11/18 02:02:11;;;;;;;23.43;15.57;;;6.30;99.90;;;;;;5054175;28;20210;-64
2021/11/18 02:04:49;;;;;;;29.70;17.50;;;6.30;99.90;;;;;;5052970;28;20221;-65
2021/11/18 02:07:15;;;;;;;38.00;17.00;;;6.30;99.90;;;;;;5072029;28;20181;-65
2021/11/18 02:09:43;;;;;;;30.80;17.83;;;6.40;99.90;;;;;;5072880;28;20174;-64
2021/11/18 02:12:25;;;;;;;30.73;16.70;;;6.40;99.90;;;;;;5054497;28;20807;-64
2021/11/18 02:14:51;;;;;;;28.00;17.30;;;6.40;99.90;;;;;;5053155;28;20217;-65
2021/11/18 02:17:18;;;;;;;34.27;18.57;;;6.30;99.90;;;;;;5070239;28;20186;-65
2021/11/18 02:19:58;;;;;;;26.87;18.20;;;6.30;99.90;;;;;;5072757;28;20639;-65
2021/11/18 02:22:25;;;;;;;34.67;18.03;;;6.30;99.90;;;;;;5054135;28;20644;-65
2021/11/18 02:24:57;;;;;;;27.83;18.03;;;6.30;99.90;;;;;;5052782;28;20213;-65
2021/11/18 02:27:28;;;;;;;33.27;19.50;;;6.30;99.90;;;;;;5070709;28;20693;-64
2021/11/18 02:29:56;;;;;;;25.90;17.83;;;6.30;99.90;;;;;;5071546;28;20257;-66
2021/11/18 02:32:29;;;;;;;31.97;18.57;;;6.30;99.90;;;;;;5052906;28;20163;-65
2021/11/18 02:35:06;;;;;;;31.27;19.50;;;6.30;99.90;;;;;;5053840;28;20198;-66
2021/11/18 02:37:32;;;;;;;27.60;17.93;;;6.30;99.90;;;;;;5052823;28;20182;-66
2021/11/18 02:39:58;;;;;;;30.27;16.63;;;6.30;99.90;;;;;;5064014;28;20192;-66
2021/11/18 02:42:24;;;;;;;31.63;17.50;;;6.30;99.90;;;;;;5072620;28;20260;-65
2021/11/18 02:44:51;;;;;;;28.53;19.47;;;6.30;99.90;;;;;;5061561;28;20214;-66
2021/11/18 02:47:16;;;;;;;33.57;18.27;;;6.20;99.90;;;;;;5052717;28;20254;-65
2021/11/18 02:49:45;;;;;;;30.77;16.80;;;6.20;99.90;;;;;;5060816;28;20265;-67
2021/11/18 02:52:14;;;;;;;34.07;16.57;;;6.20;99.90;;;;;;5072323;28;20165;-66
2021/11/18 02:54:40;;;;;;;30.57;15.97;;;6.20;99.90;;;;;;5064259;28;20198;-65
2021/11/18 02:57:07;;;;;;;32.43;17.50;;;6.20;99.90;;;;;;5052297;28;20175;-65
2021/11/18 02:59:36;;;;;;;31.17;16.93;;;6.20;99.90;;;;;;5058094;28;20182;-65
2021/11/18 03:02:07;;;;;;;29.13;16.67;;;6.20;99.90;;;;;;5072337;28;20224;-66
2021/11/18 03:04:33;;;;;;;27.07;16.07;;;6.20;99.90;;;;;;5058270;28;20210;-65
2021/11/18 03:07:02;;;;;;;29.10;17.43;;;6.20;99.90;;;;;;5052215;28;20185;-66
2021/11/18 03:09:29;;;;;;;32.17;17.00;;;6.20;99.90;;;;;;5063999;28;20182;-66
2021/11/18 03:11:56;;;;;;;30.10;16.40;;;6.20;99.90;;;;;;5072036;28;20693;-64
2021/11/18 03:14:22;;;;;;;36.37;16.20;;;6.20;99.90;;;;;;5060784;28;20710;-65
2021/11/18 03:16:48;;;;;;;28.20;15.53;;;6.20;99.90;;;;;;5061580;28;20285;-64
2021/11/18 03:19:14;;;;;;;33.73;16.43;;;6.20;99.90;;;;;;5062464;28;20269;-65
2021/11/18 03:21:41;;;;;;;26.87;15.30;;;6.20;99.90;;;;;;5052191;28;20179;-66
2021/11/18 03:24:07;;;;;;;24.40;16.43;;;6.20;99.90;;;;;;5059253;28;20689;-67
2021/11/18 03:26:34;;;;;;;31.00;16.27;;;6.20;99.90;;;;;;5071771;28;20193;-65
2021/11/18 03:29:00;;;;;;;30.67;15.93;;;6.10;99.90;;;;;;5069835;28;20215;-66
2021/11/18 03:31:27;;;;;;;41.87;16.40;;;6.10;99.90;;;;;;5071789;28;20194;-65
2021/11/18 03:34:07;;;;;;;26.57;16.33;;;6.10;99.90;;;;;;5069015;28;20178;-64
2021/11/18 03:36:33;;;;;;;34.03;16.63;;;6.10;99.90;;;;;;5051597;28;20199;-65
2021/11/18 03:39:00;;;;;;;29.30;16.60;;;6.10;99.90;;;;;;5051442;28;20178;-65
2021/11/18 03:41:28;;;;;;;35.97;18.67;;;6.10;99.90;;;;;;5051874;28;20186;-66
2021/11/18 03:44:01;;;;;;;29.97;16.83;;;6.10;99.90;;;;;;5051531;28;20224;-66
2021/11/18 03:46:32;;;;;;;37.77;17.87;;;6.10;99.90;;;;;;5068704;28;20243;-66
2021/11/18 03:48:58;;;;;;;30.77;17.03;;;6.10;99.90;;;;;;5071626;28;20209;-68
2021/11/18 03:51:25;;;;;;;39.57;17.77;;;6.00;99.90;;;;;;5053568;28;20263;-64
2021/11/18 03:53:51;;;;;;;27.20;15.30;;;6.00;99.90;;;;;;5051510;28;20174;-64
2021/11/18 03:56:21;;;;;;;38.10;16.00;;;5.90;99.90;;;;;;5067440;28;20222;-65
2021/11/18 03:58:47;;;;;;;29.70;16.13;;;5.90;99.90;;;;;;5071414;28;20225;-66
2021/11/18 04:01:13;;;;;;;33.90;16.67;;;5.90;99.90;;;;;;5065147;28;20209;-65
2021/11/18 04:03:39;;;;;;;28.80;17.10;;;5.90;99.90;;;;;;5071537;28;20243;-66
2021/11/18 04:06:06;;;;;;;37.40;17.80;;;5.90;99.90;;;;;;5062366;22;20274;-68
2021/11/18 04:08:31;;;;;;;45.77;18.63;;;5.90;99.90;;;;;;5014934;28;20184;-70
2021/11/18 04:10:57;;;;;;;33.33;18.73;;;5.90;99.90;;;;;;5033518;28;20182;-69
2021/11/18 04:13:24;;;;;;;30.60;17.17;;;5.90;99.90;;;;;;5014135;28;20768;-70
2021/11/18 04:15:50;;;;;;;29.77;16.63;;;6.00;99.90;;;;;;5025152;28;20199;-68
2021/11/18 04:18:24;;;;;;;32.73;17.10;;;6.00;99.90;;;;;;5052333;28;20167;-70
2021/11/18 04:20:52;;;;;;;27.73;14.77;;;6.00;99.90;;;;;;5051854;28;20178;-68
2021/11/18 04:23:20;;;;;;;41.57;18.03;;;6.00;99.90;;;;;;5052603;28;20565;-69
2021/11/18 04:25:46;;;;;;;33.27;17.63;;;6.00;99.90;;;;;;5052106;28;20576;-69
2021/11/18 04:28:12;;;;;;;29.87;16.63;;;6.00;99.90;;;;;;5052505;28;20167;-67
2021/11/18 04:31:00;;;;;;;37.53;17.67;;;6.00;99.90;;;;;;5051861;28;20535;-67
2021/11/18 04:33:28;;;;;;;28.00;17.70;;;6.00;99.90;;;;;;5052470;28;20174;-70
2021/11/18 04:35:54;;;;;;;40.13;17.90;;;5.90;99.90;;;;;;5055771;28;20565;-70
2021/11/18 04:38:20;;;;;;;32.23;18.27;;;5.90;99.90;;;;;;5038160;28;20210;-68
2021/11/18 04:40:46;;;;;;;35.03;17.20;;;5.90;99.90;;;;;;5055980;28;20186;-69
2021/11/18 04:43:12;;;;;;;37.93;18.17;;;5.90;99.90;;;;;;5037191;28;20185;-69
2021/11/18 04:45:38;;;;;;;36.77;17.97;;;5.90;99.90;;;;;;5055373;28;20559;-68
2021/11/18 04:48:04;;;;;;;28.30;16.63;;;5.90;99.90;;;;;;5038069;28;20259;-67
2021/11/18 04:50:31;;;;;;;33.23;16.87;;;5.80;99.90;;;;;;5037242;28;20433;-66
2021/11/18 04:52:57;;;;;;;38.60;17.93;;;5.80;99.90;;;;;;5056032;28;20606;-66
2021/11/18 04:55:26;;;;;;;34.87;17.30;;;5.80;99.90;;;;;;5055218;28;20226;-67
2021/11/18 04:57:53;;;;;;;34.93;17.70;;;5.80;99.90;;;;;;5037574;28;20394;-65
2021/11/18 05:00:25;;;;;;;35.00;18.20;;;5.80;99.90;;;;;;5053927;28;20179;-65
2021/11/18 05:02:51;;;;;;;34.90;16.90;;;5.80;99.90;;;;;;5054531;28;20250;-66
2021/11/18 05:05:17;;;;;;;36.10;16.50;;;5.90;99.90;;;;;;5053913;28;20642;-66
2021/11/18 05:07:43;;;;;;;33.57;16.07;;;5.90;99.90;;;;;;5054585;28;20189;-66
2021/11/18 05:10:10;;;;;;;33.00;16.73;;;5.90;99.90;;;;;;5053868;28;20183;-65
2021/11/18 05:12:36;;;;;;;30.23;16.83;;;6.00;99.90;;;;;;5054191;28;20655;-66
2021/11/18 05:15:04;;;;;;;29.93;16.17;;;6.00;99.90;;;;;;5053911;28;20214;-65
2021/11/18 05:17:30;;;;;;;30.63;16.33;;;5.90;99.90;;;;;;5054262;28;20166;-66
2021/11/18 05:19:56;;;;;;;40.50;15.87;;;6.00;99.90;;;;;;5053854;28;20335;-65
2021/11/18 05:22:21;;;;;;;33.73;16.93;;;6.00;99.90;;;;;;5054010;28;20188;-66
2021/11/18 05:24:47;;;;;;;36.23;16.57;;;6.00;99.90;;;;;;5053725;28;20289;-66
2021/11/18 05:27:13;;;;;;;35.77;15.40;;;6.00;99.90;;;;;;5054128;28;20194;-66
2021/11/18 05:29:39;;;;;;;29.77;17.27;;;6.00;99.90;;;;;;5035773;28;20218;-67
2021/11/18 05:32:05;;;;;;;26.63;15.33;;;6.00;99.90;;;;;;5053899;28;20198;-66
2021/11/18 05:34:31;;;;;;;28.80;15.37;;;6.00;99.90;;;;;;5053726;28;20222;-65
2021/11/18 05:36:56;;;;;;;25.97;15.37;;;6.00;99.90;;;;;;5053678;28;20199;-66
2021/11/18 05:39:22;;;;;;;37.87;16.93;;;6.00;99.90;;;;;;5053424;28;20174;-65
2021/11/18 05:41:48;;;;;;;29.73;16.37;;;6.10;99.90;;;;;;5053727;28;20174;-65
2021/11/18 05:44:16;;;;;;;25.17;16.30;;;6.20;99.90;;;;;;5053441;28;20178;-67
2021/11/18 05:46:41;;;;;;;31.07;16.83;;;6.20;99.90;;;;;;5052351;28;20186;-66
2021/11/18 05:49:07;;;;;;;23.70;15.40;;;6.30;99.90;;;;;;5053161;28;20655;-66
2021/11/18 05:51:34;;;;;;;34.00;17.30;;;6.40;99.90;;;;;;5053863;28;20648;-67
2021/11/18 05:54:00;;;;;;;35.67;16.63;;;6.50;99.90;;;;;;5053295;28;20193;-66
2021/11/18 05:56:26;;;;;;;25.43;16.67;;;6.50;99.90;;;;;;5053431;28;20198;-66
2021/11/18 05:58:52;;;;;;;25.10;16.93;;;6.50;99.90;;;;;;5053095;28;20701;-66
2021/11/18 06:01:21;;;;;;;28.63;17.03;;;6.60;99.90;;;;;;5053354;28;20261;-66
2021/11/18 06:03:47;;;;;;;32.90;16.97;;;6.70;99.90;;;;;;5053153;28;20177;-66
2021/11/18 06:06:14;;;;;;;29.93;17.90;;;6.60;99.90;;;;;;5013490;28;20219;-65
2021/11/18 06:08:40;;;;;;;29.03;17.37;;;6.70;99.90;;;;;;5013534;28;20199;-65
2021/11/18 06:11:06;;;;;;;30.00;17.50;;;6.70;99.90;;;;;;5050739;28;20179;-64
2021/11/18 06:13:33;;;;;;;31.97;16.40;;;6.70;99.90;;;;;;5053274;28;20170;-66
2021/11/18 06:16:00;;;;;;;28.20;16.30;;;6.80;99.90;;;;;;5052813;28;20230;-65
2021/11/18 06:18:26;;;;;;;24.47;16.40;;;6.80;99.90;;;;;;5053130;28;20179;-66
2021/11/18 06:20:51;;;;;;;30.77;17.77;;;6.80;99.90;;;;;;5052548;28;20187;-66
2021/11/18 06:23:18;;;;;;;32.67;17.23;;;6.80;99.90;;;;;;5053241;28;20174;-66
2021/11/18 06:25:44;;;;;;;30.40;16.53;;;6.80;99.90;;;;;;5052284;28;20206;-66
2021/11/18 06:28:10;;;;;;;21.60;16.07;;;6.90;99.90;;;;;;5052905;28;20262;-66
2021/11/18 06:30:53;;;;;;;27.43;15.67;;;6.90;99.90;;;;;;5052026;28;20651;-66
2021/11/18 06:33:19;;;;;;;28.10;16.90;;;6.90;99.90;;;;;;5052973;28;20182;-66
2021/11/18 06:35:45;;;;;;;32.47;15.70;;;6.90;99.90;;;;;;5052423;28;20199;-66
2021/11/18 06:38:11;;;;;;;28.00;16.33;;;6.90;99.90;;;;;;5052697;28;20549;-65
2021/11/18 06:40:37;;;;;;;20.97;14.90;;;6.90;99.90;;;;;;5051339;28;20183;-67
2021/11/18 06:43:04;;;;;;;22.93;15.37;;;6.90;99.90;;;;;;5052690;28;20189;-65
2021/11/18 06:45:32;;;;;;;26.33;15.03;;;6.90;99.90;;;;;;5052313;28;20344;-65
2021/11/18 06:47:58;;;;;;;33.60;14.73;;;6.90;99.90;;;;;;5052452;28;20188;-65
2021/11/18 06:50:24;;;;;;;27.63;13.70;;;6.90;99.90;;;;;;5051584;28;20183;-65
2021/11/18 06:52:50;;;;;;;23.43;13.67;;;7.00;99.90;;;;;;5034199;28;20182;-65
2021/11/18 06:55:16;;;;;;;26.03;15.30;;;7.00;99.90;;;;;;5016863;28;20563;-65
2021/11/18 06:57:42;;;;;;;23.37;13.93;;;7.00;99.90;;;;;;5030124;28;20179;-65
2021/11/18 07:00:11;;;;;;;20.43;12.60;;;7.00;99.90;;;;;;5027346;28;20194;-66
2021/11/18 07:02:37;;;;;;;22.13;13.40;;;7.10;99.90;;;;;;5033727;28;20183;-65
2021/11/18 07:05:03;;;;;;;27.27;14.53;;;7.10;99.90;;;;;;5032984;28;20217;-66
2021/11/18 07:07:29;;;;;;;25.73;13.97;;;7.10;99.90;;;;;;5033876;28;20221;-65
2021/11/18 07:09:54;;;;;;;26.83;13.93;;;7.10;99.90;;;;;;5052016;28;20175;-66
2021/11/18 07:12:22;;;;;;;25.47;14.37;;;7.10;99.90;;;;;;5050677;28;20179;-66
2021/11/18 07:14:48;;;;;;;25.67;14.57;;;7.10;99.90;;;;;;5051760;28;20190;-67
2021/11/18 07:17:14;;;;;;;22.50;14.50;;;7.20;99.90;;;;;;5050174;28;20179;-64
2021/11/18 07:19:40;;;;;;;25.07;13.63;;;7.20;99.90;;;;;;5031571;28;20176;-66
2021/11/18 07:22:06;;;;;;;22.97;13.23;;;7.20;99.90;;;;;;5014059;28;20528;-66
2021/11/18 07:24:33;;;;;;;28.57;14.53;;;7.30;99.90;;;;;;5031571;28;20194;-66
2021/11/18 07:26:59;;;;;;;27.00;14.13;;;7.30;99.90;;;;;;5036735;28;20194;-65
2021/11/18 07:29:25;;;;;;;33.93;16.50;;;7.30;99.90;;;;;;5051454;28;20189;-65
2021/11/18 07:31:52;;;;;;;23.00;14.33;;;7.30;99.90;;;;;;5033158;28;20182;-66
2021/11/18 07:34:19;;;;;;;27.83;16.00;;;7.40;99.90;;;;;;5051400;28;20181;-66
2021/11/18 07:36:46;;;;;;;22.80;13.57;;;7.40;99.90;;;;;;5050973;28;20198;-67
2021/11/18 07:39:12;;;;;;;25.43;14.87;;;7.40;99.90;;;;;;5051193;28;20238;-65
2021/11/18 07:41:39;;;;;;;21.93;13.67;;;7.50;99.90;;;;;;5033438;28;20198;-66
2021/11/18 07:44:04;;;;;;;26.03;13.27;;;7.50;99.90;;;;;;5046690;28;20174;-66
2021/11/18 07:46:30;;;;;;;19.77;14.40;;;7.50;99.90;;;;;;5031359;28;20579;-66
2021/11/18 07:48:59;;;;;;;25.13;14.10;;;7.50;99.90;;;;;;5031235;28;20172;-65
2021/11/18 07:51:25;;;;;;;21.67;14.50;;;7.60;99.90;;;;;;5049745;28;20244;-66
2021/11/18 07:53:51;;;;;;;23.87;14.03;;;7.70;99.90;;;;;;5051111;28;20280;-67
2021/11/18 07:56:18;;;;;;;24.63;12.70;;;7.70;99.90;;;;;;5050984;28;20579;-66
2021/11/18 07:58:44;;;;;;;17.50;13.20;;;7.70;99.90;;;;;;5051143;28;20193;-65
2021/11/18 08:01:11;;;;;;;21.37;12.80;;;7.80;99.90;;;;;;5050699;28;20186;-65
2021/11/18 08:03:37;;;;;;;25.63;13.73;;;7.90;99.90;;;;;;5051349;28;20175;-67
2021/11/18 08:06:07;;;;;;;19.00;14.40;;;7.90;99.90;;;;;;5050565;28;20210;-67
2021/11/18 08:08:32;;;;;;;21.13;13.87;;;7.90;99.90;;;;;;5050914;28;20179;-66
2021/11/18 08:10:58;;;;;;;21.73;13.90;;;8.00;99.90;;;;;;5054677;28;20174;-66
2021/11/18 08:13:23;;;;;;;18.03;12.70;;;8.00;99.90;;;;;;5055146;28;20182;-65
2021/11/18 08:15:49;;;;;;;18.93;12.83;;;8.00;99.90;;;;;;5054996;28;20198;-66
2021/11/18 08:18:15;;;;;;;21.03;12.97;;;8.10;99.90;;;;;;5054999;28;20167;-66
2021/11/18 08:20:41;;;;;;;17.80;12.63;;;8.00;99.90;;;;;;5054627;28;20179;-65
2021/11/18 08:23:07;;;;;;;21.87;13.37;;;8.10;99.90;;;;;;5042231;28;20326;-66
2021/11/18 08:25:35;;;;;;;19.60;11.50;;;8.10;99.90;;;;;;5035054;28;20707;-65
2021/11/18 08:28:01;;;;;;;18.50;13.50;;;8.20;99.90;;;;;;5034904;28;20226;-66
2021/11/18 08:30:30;;;;;;;19.00;11.67;;;8.10;99.90;;;;;;5034613;28;20175;-65
2021/11/18 08:32:59;;;;;;;16.70;11.80;;;8.20;99.90;;;;;;5035020;28;20172;-65
2021/11/18 08:35:31;;;;;;;15.17;11.77;;;8.20;99.90;;;;;;5034891;28;20206;-65
2021/11/18 08:38:08;;;;;;;22.23;12.43;;;8.20;99.90;;;;;;5034133;28;20195;-66
2021/11/18 08:40:36;;;;;;;14.13;11.53;;;8.30;99.90;;;;;;5034368;28;20182;-65
2021/11/18 08:43:03;;;;;;;17.27;11.47;;;8.30;99.90;;;;;;5016847;28;20184;-66
2021/11/18 08:45:28;;;;;;;12.03;10.97;;;8.30;99.90;;;;;;5034653;28;20231;-66
2021/11/18 08:47:54;;;;;;;13.10;10.83;;;8.40;99.90;;;;;;5034514;28;20226;-66
2021/11/18 08:50:22;;;;;;;12.43;11.23;;;8.50;99.90;;;;;;5034369;28;20655;-66
2021/11/18 08:52:49;;;;;;;16.53;11.67;;;8.50;99.90;;;;;;5034312;28;20167;-66
2021/11/18 08:55:19;;;;;;;18.67;12.30;;;8.60;99.90;;;;;;5034414;28;20206;-65
2021/11/18 08:57:46;;;;;;;15.57;11.30;;;8.70;99.90;;;;;;5034844;28;20175;-65
2021/11/18 09:00:23;;;;;;;17.43;11.10;;;8.70;99.90;;;;;;5008925;28;20175;-66
2021/11/18 09:02:49;;;;;;;15.17;10.57;;;8.70;99.90;;;;;;5042840;28;20177;-66
2021/11/18 09:05:15;;;;;;;16.67;10.87;;;8.80;99.90;;;;;;5053986;28;20234;-66
2021/11/18 09:07:41;;;;;;;20.80;10.93;;;8.90;99.90;;;;;;5054321;28;20713;-66
2021/11/18 09:10:07;;;;;;;17.30;12.40;;;9.00;99.90;;;;;;5053901;28;20205;-66
2021/11/18 09:12:33;;;;;;;11.07;9.97;;;9.20;99.90;;;;;;5053874;28;20171;-66
2021/11/18 09:15:01;;;;;;;14.40;10.57;;;9.40;99.90;;;;;;5053827;28;20191;-65
2021/11/18 09:17:28;;;;;;;20.90;9.77;;;9.60;99.90;;;;;;5053781;28;20708;-66
2021/11/18 09:19:54;;;;;;;12.67;10.63;;;9.80;99.90;;;;;;5053241;28;20538;-66
2021/11/18 09:22:20;;;;;;;10.40;9.40;;;10.10;99.90;;;;;;5054150;28;20185;-66
2021/11/18 09:24:50;;;;;;;15.37;9.53;;;10.30;99.90;;;;;;5053536;28;20195;-66
2021/11/18 09:27:24;;;;;;;14.27;11.53;;;10.40;99.90;;;;;;5053331;28;20261;-66
2021/11/18 09:29:51;;;;;;;17.33;9.53;;;10.20;99.90;;;;;;5053086;28;20183;-65
2021/11/18 09:32:17;;;;;;;14.97;10.10;;;10.10;99.90;;;;;;5035280;28;20202;-66
2021/11/18 09:34:43;;;;;;;12.23;10.10;;;10.10;99.90;;;;;;5053229;28;20254;-66
2021/11/18 09:37:10;;;;;;;13.10;10.67;;;10.00;99.90;;;;;;5053519;28;20264;-66
2021/11/18 09:39:36;;;;;;;11.53;9.90;;;10.00;99.90;;;;;;5035449;28;20710;-66
2021/11/18 09:42:16;;;;;;;14.37;10.20;;;9.90;99.90;;;;;;5053375;28;20269;-65
2021/11/18 09:45:13;;;;;;;15.20;9.93;;;9.90;99.90;;;;;;5053306;28;20197;-66
2021/11/18 09:48:03;;;;;;;10.70;9.60;;;9.90;99.90;;;;;;5053441;28;20674;-67
2021/11/18 09:51:09;;;;;;;11.90;9.97;;;10.20;99.90;;;;;;5053074;28;20171;-67
2021/11/18 09:53:53;;;;;;;11.07;9.87;;;10.70;99.90;;;;;;4992162;28;20673;-66
2021/11/18 09:56:50;;;;;;;11.63;9.10;;;11.10;99.90;;;;;;5013769;28;20602;-67
2021/11/18 09:59:23;;;;;;;14.37;8.93;;;11.40;99.90;;;;;;4986183;28;20219;-67
2021/11/18 10:02:25;;;;;;;10.97;9.13;;;11.70;99.90;;;;;;5013544;28;20175;-67
2021/11/18 10:05:07;;;;;;;10.37;9.13;;;11.80;99.90;;;;;;4978939;28;20206;-66
2021/11/18 10:07:35;;;;;;;14.57;9.33;;;11.90;99.90;;;;;;5023856;28;20190;-66
2021/11/18 10:10:10;;;;;;;14.03;9.00;;;12.10;99.90;;;;;;5034871;28;20181;-67
2021/11/18 10:12:35;;;;;;;12.47;8.93;;;12.20;99.90;;;;;;5052728;28;20174;-67
2021/11/18 10:15:07;;;;;;;23.33;9.97;;;12.20;99.90;;;;;;5052823;28;20559;-67
2021/11/18 10:17:35;;;;;;;11.37;9.00;;;12.30;99.90;;;;;;5052748;28;20578;-66
2021/11/18 10:20:07;;;;;;;12.13;9.13;;;12.40;99.90;;;;;;5052387;28;20171;-66
2021/11/18 10:22:44;;;;;;;11.63;8.83;;;12.60;99.90;;;;;;5052767;28;20206;-67
2021/11/18 10:25:15;;;;;;;11.30;9.17;;;12.70;99.90;;;;;;5052771;28;20205;-67
2021/11/18 10:27:53;;;;;;;14.47;9.70;;;12.80;99.90;;;;;;5052423;28;20640;-66
2021/11/18 10:30:33;;;;;;;9.50;8.40;;;13.00;99.90;;;;;;5051351;28;20183;-67
2021/11/18 10:33:10;;;;;;;11.33;8.23;;;12.90;99.90;;;;;;5033813;28;20179;-66
2021/11/18 10:35:53;;;;;;;13.03;8.40;;;13.10;99.90;;;;;;5052893;28;20194;-66
2021/11/18 10:38:25;;;;;;;10.93;9.27;;;13.20;99.90;;;;;;5052105;28;20175;-66
2021/11/18 10:40:57;;;;;;;19.33;11.30;;;13.30;99.90;;;;;;5051595;28;20603;-67
2021/11/18 10:43:23;;;;;;;10.27;9.07;;;13.50;99.90;;;;;;5051952;28;20175;-67
2021/11/18 10:45:53;;;;;;;15.00;10.43;;;13.60;99.90;;;;;;5051928;28;20199;-67
2021/11/18 10:48:23;;;;;;;14.47;9.77;;;13.70;99.90;;;;;;5052269;28;20314;-67
2021/11/18 10:50:48;;;;;;;14.07;10.00;;;13.40;99.90;;;;;;5051457;28;20170;-66
2021/11/18 10:53:22;;;;;;;14.97;8.40;;;13.10;99.90;;;;;;5052284;28;20163;-67
2021/11/18 10:56:00;;;;;;;10.57;8.27;;;13.00;99.90;;;;;;5051903;28;20271;-66
2021/11/18 10:58:26;;;;;;;9.80;8.77;;;13.20;99.90;;;;;;5052190;28;20171;-66
2021/11/18 11:01:00;;;;;;;15.67;10.30;;;13.30;99.90;;;;;;5033510;28;20368;-67
2021/11/18 11:03:38;;;;;;;7.97;7.17;;;13.20;99.90;;;;;;5052113;28;20679;-67
2021/11/18 11:06:09;;;;;;;12.30;8.03;;;13.50;99.90;;;;;;5051366;28;20211;-66
2021/11/18 11:08:36;;;;;;;8.40;7.23;;;13.80;99.90;;;;;;5033867;28;20170;-67
2021/11/18 11:11:43;;;;;;;17.77;9.17;;;13.70;99.90;;;;;;5051350;28;20189;-67
2021/11/18 11:14:32;;;;;;;14.80;8.90;;;13.30;99.90;;;;;;5024376;28;20191;-66
2021/11/18 11:17:29;;;;;;;10.87;9.17;;;12.80;99.90;;;;;;5051443;28;20544;-66
2021/11/18 11:20:35;;;;;;;13.40;9.63;;;12.70;99.90;;;;;;5051087;28;20178;-66
2021/11/18 11:23:07;;;;;;;31.37;12.20;;;12.50;99.90;;;;;;5012062;28;20187;-66
2021/11/18 11:25:40;;;;;;;14.03;8.80;;;12.40;99.90;;;;;;5024753;28;20238;-66
2021/11/18 11:28:23;;;;;;;11.70;9.50;;;12.40;99.90;;;;;;5051718;28;20175;-66
2021/11/18 11:31:23;;;;;;;20.50;11.23;;;12.50;99.90;;;;;;5050749;28;20171;-66
2021/11/18 11:33:55;;;;;;;13.03;9.93;;;12.60;99.90;;;;;;5051502;28;20163;-66
2021/11/18 11:36:30;;;;;;;9.87;8.33;;;12.60;99.90;;;;;;5051229;28;20203;-66
2021/11/18 11:39:13;;;;;;;10.27;7.70;;;12.50;99.90;;;;;;5051249;28;20253;-66
2021/11/18 11:41:54;;;;;;;9.27;7.43;;;12.50;99.90;;;;;;5051121;28;20178;-66
2021/11/18 11:44:42;;;;;;;10.03;8.67;;;12.60;99.90;;;;;;5050508;28;20186;-66
2021/11/18 11:47:51;;;;;;;8.20;6.90;;;12.50;99.90;;;;;;5050091;28;20265;-66
2021/11/18 11:50:54;;;;;;;17.97;7.63;;;12.40;99.90;;;;;;5031317;28;20172;-67
2021/11/18 11:53:30;;;;;;;14.20;8.23;;;12.30;99.90;;;;;;5036708;28;20308;-66
2021/11/18 11:56:32;;;;;;;8.07;7.37;;;12.10;99.90;;;;;;5051375;28;20707;-66
2021/11/18 11:59:03;;;;;;;10.53;8.00;;;12.00;99.90;;;;;;5050755;28;20179;-66
2021/11/18 12:01:49;;;;;;;12.90;8.23;;;11.70;99.90;;;;;;5051518;28;20178;-66
2021/11/18 12:04:22;;;;;;;11.67;8.13;;;11.60;99.90;;;;;;5033301;28;20178;-66
2021/11/18 12:07:08;;;;;;;9.50;7.20;;;11.80;99.90;;;;;;5051106;28;20221;-66
2021/11/18 12:09:34;;;;;;;7.97;6.90;;;12.10;99.90;;;;;;5032900;28;20201;-66
2021/11/18 12:12:12;;;;;;;9.37;7.07;;;12.40;99.90;;;;;;5033049;28;20186;-65
2021/11/18 12:14:41;;;;;;;7.03;6.43;;;12.40;99.90;;;;;;5050977;28;20175;-66
2021/11/18 12:17:23;;;;;;;13.50;7.50;;;12.50;99.90;;;;;;5051137;28;20644;-66
2021/11/18 12:20:07;;;;;;;11.00;6.80;;;12.50;99.90;;;;;;5050618;28;20171;-66
2021/11/18 12:22:38;;;;;;;9.97;6.80;;;12.70;99.90;;;;;;5050837;28;20233;-65
2021/11/18 12:25:35;;;;;;;7.63;6.93;;;12.80;99.90;;;;;;5050796;28;20210;-67
2021/11/18 12:28:35;;;;;;;15.83;9.10;;;12.70;99.90;;;;;;5050778;28;20204;-66
2021/11/18 12:31:04;;;;;;;12.83;9.07;;;12.80;99.90;;;;;;5050455;28;20175;-65
2021/11/18 12:33:47;;;;;;;11.70;6.90;;;12.70;99.90;;;;;;5050848;28;20182;-65
2021/11/18 12:36:33;;;;;;;12.17;7.60;;;12.70;99.90;;;;;;5050936;28;20682;-66
2021/11/18 12:39:40;;;;;;;12.40;7.67;;;12.60;99.90;;;;;;5011170;28;20212;-67
2021/11/18 12:42:25;;;;;;;9.87;8.27;;;12.60;99.90;;;;;;5051389;28;20236;-66
2021/11/18 12:45:19;;;;;;;12.20;8.83;;;12.40;99.90;;;;;;5050282;28;20230;-66
2021/11/18 12:47:48;;;;;;;17.93;9.30;;;12.40;99.90;;;;;;5050849;28;20534;-65
2021/11/18 12:50:42;;;;;;;21.80;10.03;;;12.40;99.90;;;;;;5050538;28;20186;-65
2021/11/18 12:53:10;;;;;;;11.50;8.17;;;12.50;99.90;;;;;;5050859;28;20171;-66
2021/11/18 12:56:12;;;;;;;11.40;8.67;;;12.70;99.90;;;;;;5052013;28;20269;-66